createdAt,value
2023-03-22T00:03:37.405Z,99.90
2023-03-22T00:08:43.290Z,99.90
2023-03-22T00:13:49.704Z,99.90
2023-03-22T00:19:01.713Z,99.90
2023-03-22T00:24:07.091Z,99.90
2023-03-22T00:29:12.138Z,99.90
2023-03-22T00:34:20.233Z,99.90
2023-03-22T00:39:26.378Z,99.90
2023-03-22T00:44:32.121Z,99.90
2023-03-22T00:49:39.063Z,99.90
2023-03-22T00:54:46.003Z,99.90
2023-03-22T00:59:56.042Z,99.90
2023-03-22T01:05:02.094Z,99.90
2023-03-22T01:10:09.628Z,99.90
2023-03-22T01:15:17.903Z,99.90
2023-03-22T01:20:24.163Z,99.90
2023-03-22T01:25:30.532Z,99.90
2023-03-22T01:30:36.768Z,99.90
2023-03-22T01:35:46.675Z,99.90
2023-03-22T01:40:53.571Z,99.90
2023-03-22T01:46:05.203Z,99.90
2023-03-22T01:51:13.700Z,99.90
2023-03-22T01:56:43.206Z,99.90
2023-03-22T02:01:58.626Z,99.90
2023-03-22T02:07:11.557Z,99.90
2023-03-22T02:44:42.688Z,99.90
2023-03-22T02:50:03.057Z,99.90
2023-03-22T02:55:26.888Z,99.90
2023-03-22T03:00:41.187Z,99.90
2023-03-22T03:05:58.963Z,99.90
2023-03-22T03:11:05.659Z,99.80
2023-03-22T03:16:18.641Z,99.90
2023-03-22T03:21:31.605Z,99.90
2023-03-22T03:27:06.348Z,97.90
2023-03-22T03:32:43.347Z,96.60
2023-03-22T03:37:54.110Z,97.20
2023-03-22T03:43:02.777Z,96.00
2023-03-22T03:48:21.089Z,97.20
2023-03-22T03:53:37.082Z,95.20
2023-03-22T03:58:45.394Z,96.50
2023-03-22T04:03:56.818Z,96.40
2023-03-22T04:09:21.189Z,95.40
2023-03-22T04:14:32.569Z,96.00
2023-03-22T04:19:47.082Z,95.50
2023-03-22T04:24:53.741Z,92.50
2023-03-22T04:30:02.371Z,94.20
2023-03-22T04:35:32.011Z,94.20
2023-03-22T04:40:41.206Z,92.30
2023-03-22T04:46:04.498Z,92.80
2023-03-22T04:52:37.718Z,90.10
2023-03-22T04:57:46.284Z,83.00
2023-03-22T05:03:00.050Z,78.40
2023-03-22T05:08:18.315Z,75.90
2023-03-22T05:14:16.340Z,72.60
2023-03-22T05:24:36.641Z,70.80
2023-03-22T05:29:46.475Z,65.40
2023-03-22T05:35:06.144Z,64.80
2023-03-22T05:40:18.266Z,63.90
2023-03-22T05:45:29.051Z,58.70
2023-03-22T05:51:01.682Z,63.20
2023-03-22T05:56:12.672Z,60.00
2023-03-22T06:01:59.597Z,61.80
2023-03-22T06:07:18.053Z,61.60
2023-03-22T06:12:34.899Z,60.50
2023-03-22T06:17:48.282Z,55.80
2023-03-22T06:23:02.390Z,58.10
2023-03-22T06:28:09.339Z,57.50
2023-03-22T06:33:43.059Z,57.80
2023-03-22T06:39:04.092Z,56.50
2023-03-22T06:44:10.239Z,57.90
2023-03-22T06:49:49.249Z,58.40
2023-03-22T06:55:13.770Z,56.00
2023-03-22T07:00:21.480Z,60.00
2023-03-22T07:05:33.708Z,56.90
2023-03-22T07:10:40.796Z,54.30
2023-03-22T07:15:47.338Z,57.30
2023-03-22T07:21:17.230Z,57.50
2023-03-22T07:26:33.012Z,56.50
2023-03-22T07:31:41.478Z,55.30
2023-03-22T07:36:59.885Z,55.10
2023-03-22T07:42:06.883Z,61.50
2023-03-22T07:47:40.793Z,62.00
2023-03-22T07:53:13.087Z,58.70
2023-03-22T07:58:19.535Z,60.50
2023-03-22T08:03:29.768Z,62.80
2023-03-22T08:08:43.646Z,65.40
2023-03-22T08:14:27.497Z,66.50
2023-03-22T08:19:49.544Z,72.50
2023-03-22T08:25:02.894Z,75.20
2023-03-22T08:30:13.691Z,78.60
2023-03-22T08:35:22.055Z,78.90
2023-03-22T08:40:29.863Z,82.40
2023-03-22T08:45:47.047Z,85.00
2023-03-22T08:50:55.364Z,87.00
2023-03-22T08:56:25.641Z,90.10
2023-03-22T09:01:46.046Z,91.30
2023-03-22T09:06:55.382Z,92.10
2023-03-22T09:12:10.016Z,92.60
2023-03-22T09:17:21.349Z,94.20
2023-03-22T09:22:29.178Z,95.60
2023-03-22T09:27:35.781Z,97.60
2023-03-22T09:32:42.143Z,98.60
2023-03-22T09:37:54.468Z,99.50
2023-03-22T09:43:04.988Z,99.90
2023-03-22T09:48:25.489Z,99.90
2023-03-22T09:53:36.739Z,99.90
2023-03-22T09:59:16.115Z,99.90
2023-03-22T10:04:54.233Z,99.90
2023-03-22T10:10:21.413Z,99.90
2023-03-22T10:15:33.157Z,99.90
2023-03-22T10:21:08.030Z,99.90
2023-03-22T10:26:30.778Z,99.90
2023-03-22T10:31:37.139Z,99.90
2023-03-22T10:36:44.358Z,99.90
2023-03-22T10:41:51.310Z,99.90
2023-03-22T10:47:01.546Z,99.90
2023-03-22T10:52:31.943Z,99.90
2023-03-22T10:57:41.812Z,99.90
2023-03-22T11:03:03.306Z,99.90
2023-03-22T11:08:16.340Z,99.90
2023-03-22T11:13:26.233Z,99.90
2023-03-22T11:18:37.354Z,99.90
2023-03-22T11:24:10.396Z,99.90
2023-03-22T11:35:28.397Z,99.90
2023-03-22T11:40:37.737Z,99.90
2023-03-22T11:45:45.839Z,99.90
2023-03-22T11:50:58.966Z,99.90
2023-03-22T11:56:09.009Z,99.90
2023-03-22T12:01:41.640Z,99.90
2023-03-22T12:06:48.376Z,99.90
2023-03-22T12:12:03.891Z,99.90
2023-03-22T12:17:42.607Z,99.90
2023-03-22T12:22:55.831Z,99.90
2023-03-22T12:28:11.332Z,99.90
2023-03-22T12:33:40.287Z,99.90
2023-03-22T12:39:00.563Z,99.90
2023-03-22T12:44:12.927Z,99.90
2023-03-22T12:49:29.532Z,99.90
2023-03-22T12:54:36.564Z,99.90
2023-03-22T12:59:47.842Z,99.90
2023-03-22T13:04:59.821Z,99.90
2023-03-22T13:16:53.499Z,99.90
2023-03-22T13:22:27.791Z,99.90
2023-03-22T13:55:16.326Z,99.90
2023-03-22T14:01:45.845Z,99.90
2023-03-22T14:07:42.126Z,99.90
2023-03-22T14:13:13.398Z,99.90
2023-03-22T14:18:38.479Z,99.90
